Flight Track Log - Related Links

Times and Time Zones

All times are in EDT time to prevent confusion due to time zone crossing. See the CSN687 flight status page for this flight to view local times or setup timezone preferences in your user account.

Time Position Orientation Groundspeed Altitude Reporting Facility
EDT Latitude Longitude Course Direction KTS MPH feet Rate Location/Type
Fri 09:51:15 PM 42.8633 125.4180 171° South  Level Estimated
Fri 09:52:15 PM 42.7949 125.4322 171° South  Level Estimated
Fri 09:53:15 PM 42.7265 125.4463 171° South  Level Estimated
Fri 09:54:15 PM 42.6580 125.4605 171° South  Level Estimated
Fri 09:55:15 PM 42.5896 125.4746 171° South  Level Estimated
Fri 09:56:15 PM 42.5212 125.4886 171° South  Level Estimated
Fri 09:57:15 PM 42.4528 125.5027 171° South  Level Estimated
Fri 09:58:15 PM 42.3843 125.5167 171° South  Level Estimated
Fri 09:59:15 PM 42.3159 125.5307 171° South  Level Estimated
Fri 10:05:32 PM 41.8858 125.6179 171° South  Level Estimated
Fri 10:06:32 PM 41.8174 125.6316 171° South  Level Estimated
Fri 10:07:32 PM 41.7489 125.6454 171° South  Level Estimated
Fri 10:08:32 PM 41.6805 125.6591 172° South  Level Estimated
Fri 10:09:32 PM 41.6120 125.6728 172° South  Level Estimated
Fri 10:10:32 PM 41.5436 125.6864 172° South  Level Estimated
Fri 10:11:32 PM 41.4751 125.7000 172° South  Level Estimated
Fri 10:12:32 PM 41.4067 125.7136 172° South  Level Estimated
Fri 10:13:32 PM 41.3382 125.7272 172° South  Level Estimated
Fri 10:14:32 PM 41.2697 125.7407 172° South  Level Estimated
Fri 10:15:32 PM 41.2013 125.7542 172° South  Level Estimated
Fri 10:16:32 PM 41.1328 125.7677 172° South  Level Estimated
Fri 10:17:32 PM 41.0643 125.7811 172° South  Level Estimated
Fri 10:18:32 PM 40.9959 125.7946 172° South  Level Estimated
Fri 10:19:32 PM 40.9274 125.8080 172° South  Level Estimated
Fri 10:20:32 PM 40.8589 125.8213 172° South  Level Estimated
Fri 10:21:32 PM 40.7905 125.8347 172° South  Level Estimated
Fri 10:22:32 PM 40.7220 125.8480 172° South  Level Estimated
Fri 10:23:32 PM 40.6535 125.8613 172° South  Level Estimated
Fri 10:24:32 PM 40.5850 125.8745 172° South  Level Estimated
Fri 10:25:32 PM 40.5165 125.8877 172° South  Level Estimated
Fri 10:26:32 PM 40.4481 125.9009 172° South  Level Estimated
Fri 10:27:32 PM 40.3796 125.9141 172° South  Level Estimated
Fri 10:28:32 PM 40.3111 125.9273 172° South  Level Estimated
Fri 10:29:32 PM 40.2426 125.9404 172° South  Level Estimated
Fri 10:30:32 PM 40.1741 125.9535 172° South  Level Estimated
Fri 10:31:32 PM 40.1057 125.9665 172° South  Level Estimated
Fri 10:32:32 PM 40.0372 125.9796 172° South  Level Estimated
Fri 10:33:32 PM 39.9687 125.9926 172° South  Level Estimated
Fri 10:34:32 PM 39.9002 126.0056 172° South  Level Estimated
Fri 10:35:32 PM 39.8317 126.0186 172° South  Level Estimated
Fri 10:36:32 PM 39.7632 126.0315 172° South  Level Estimated
Fri 10:37:32 PM 39.6947 126.0444 172° South  Level Estimated
Fri 10:38:32 PM 39.6262 126.0573 172° South  Level Estimated
Fri 10:39:32 PM 39.5577 126.0702 172° South  Level Estimated
Fri 10:40:32 PM 39.4892 126.0830 172° South  Level Estimated
Fri 10:41:32 PM 39.4207 126.0958 172° South  Level Estimated
Fri 10:42:32 PM 39.3522 126.1086 172° South  Level Estimated
Fri 10:43:32 PM 39.2837 126.1214 172° South  Level Estimated
Fri 10:44:32 PM 39.2152 126.1341 172° South  Level Estimated
Fri 10:45:32 PM 39.1467 126.1468 172° South  Level Estimated
Fri 10:46:32 PM 39.0782 126.1595 172° South  Level Estimated
Fri 10:47:32 PM 39.0097 126.1722 172° South  Level Estimated
Fri 10:48:32 PM 38.9412 126.1848 172° South  Level Estimated
Fri 10:49:32 PM 38.8726 126.1974 172° South  Level Estimated
Fri 10:50:32 PM 38.8041 126.2100 172° South  Level Estimated
Fri 10:51:32 PM 38.7356 126.2225 172° South  Level Estimated
Fri 10:52:32 PM 38.6671 126.2351 172° South  Level Estimated
Fri 10:53:32 PM 38.5986 126.2476 172° South  Level Estimated
Fri 10:54:32 PM 38.5300 126.2601 172° South  Level Estimated
Fri 10:55:32 PM 38.4615 126.2726 172° South  Level Estimated
Fri 10:56:32 PM 38.3930 126.2850 172° South  Level Estimated
Fri 10:57:32 PM 38.3245 126.2974 172° South  Level Estimated
Fri 10:58:32 PM 38.2560 126.3098 172° South  Level Estimated
Fri 10:59:32 PM 38.1874 126.3222 172° South  Level Estimated
Fri 11:00:32 PM 38.1189 126.3345 172° South  Level Estimated
Fri 11:01:32 PM 38.0504 126.3469 172° South  Level Estimated
Fri 11:02:32 PM 37.9818 126.3592 172° South  Level Estimated
Fri 11:03:32 PM 37.9133 126.3715 172° South  Level Estimated
Fri 11:04:32 PM 37.8448 126.3837 172° South  Level Estimated
Fri 11:05:32 PM 37.7762 126.3960 172° South  Level Estimated
Fri 11:06:32 PM 37.7077 126.4082 172° South  Level Estimated
Fri 11:07:32 PM 37.6391 126.4204 172° South  Level Estimated
Fri 11:08:32 PM 37.5706 126.4325 172° South  Level Estimated
Fri 11:09:32 PM 37.5021 126.4447 172° South  Level Estimated
Fri 11:10:32 PM 37.4335 126.4568 352° North  Level Estimated
Fri 11:11:32 PM 37.5021 126.4447 172° South  Level Estimated
Fri 11:12:32 PM 37.4335 126.4568 352° North  Level Estimated
Fri 11:13:32 PM 37.5021 126.4447 172° South  Level Estimated
Fri 11:14:32 PM 37.4335 126.4568 352° North  Level Estimated
Fri 11:15:32 PM 37.5021 126.4447 172° South  Level Estimated
Fri 11:16:32 PM 37.4335 126.4568 352° North  Level Estimated
Fri 11:17:32 PM 37.5021 126.4447 172° South  Level Estimated
Fri 11:18:32 PM 37.4335 126.4568 352° North  Level Estimated
Fri 11:19:32 PM 37.5021 126.4447 172° South  Level Estimated
Fri 11:20:32 PM 37.4335 126.4568 352° North  Level Estimated
Fri 11:21:32 PM 37.5021 126.4447 172° South  Level Estimated
Fri 11:22:32 PM 37.4335 126.4568 352° North  Level Estimated
Fri 11:23:32 PM 37.5021 126.4447 172° South  Level Estimated
Fri 11:24:32 PM 37.4335 126.4568 352° North  Level Estimated
Fri 11:25:32 PM 37.5021 126.4447 352° North  Level Estimated

Login

Don't have an account? Register now (free) for customized features, flight alerts, and more!